createdAt,value
2019-02-26T00:00:10.269Z,102799.40
2019-02-26T00:02:46.538Z,102806.37
2019-02-26T00:05:12.530Z,102808.08
2019-02-26T00:07:39.736Z,102798.91
2019-02-26T00:10:09.098Z,102797.09
2019-02-26T00:12:36.595Z,102797.45
2019-02-26T00:15:04.734Z,102810.17
2019-02-26T00:17:36.230Z,102812.72
2019-02-26T00:20:01.114Z,102807.44
2019-02-26T00:22:30.005Z,102813.29
2019-02-26T00:25:01.003Z,102814.07
2019-02-26T00:27:30.430Z,102812.27
2019-02-26T00:29:58.337Z,102809.35
2019-02-26T00:32:25.406Z,102805.67
2019-02-26T00:34:53.141Z,102801.13
2019-02-26T00:37:24.222Z,102801.42
2019-02-26T00:39:52.281Z,102806.63
2019-02-26T00:42:23.645Z,102810.10
2019-02-26T00:44:51.484Z,102805.09
2019-02-26T00:47:19.250Z,102808.61
2019-02-26T00:49:48.400Z,102805.66
2019-02-26T00:52:15.710Z,102804.95
2019-02-26T00:54:42.904Z,102810.16
2019-02-26T00:57:11.532Z,102802.77
2019-02-26T00:59:41.241Z,102801.00
2019-02-26T01:02:08.241Z,102796.33
2019-02-26T01:04:35.401Z,102796.89
2019-02-26T01:07:03.697Z,102801.27
2019-02-26T01:09:33.969Z,102798.69
2019-02-26T01:12:01.415Z,102801.23
2019-02-26T01:14:29.330Z,102798.16
2019-02-26T01:16:56.004Z,102799.45
2019-02-26T01:19:22.714Z,102808.83
2019-02-26T01:21:49.638Z,102803.22
2019-02-26T01:24:16.418Z,102794.00
2019-02-26T01:26:43.964Z,102789.20
2019-02-26T01:29:16.008Z,102786.98
2019-02-26T01:31:41.354Z,102785.27
2019-02-26T01:34:11.486Z,102790.62
2019-02-26T01:36:40.252Z,102788.31
2019-02-26T01:39:09.671Z,102786.10
2019-02-26T01:41:41.340Z,102785.92
2019-02-26T01:44:08.835Z,102788.40
2019-02-26T01:46:36.593Z,102783.00
2019-02-26T01:49:23.747Z,102793.88
2019-02-26T01:51:53.851Z,102794.52
2019-02-26T01:54:20.866Z,102784.52
2019-02-26T01:56:47.947Z,102781.95
2019-02-26T01:59:18.162Z,102775.58
2019-02-26T02:01:44.710Z,102778.05
2019-02-26T02:04:13.234Z,102774.83
2019-02-26T02:06:41.751Z,102769.73
2019-02-26T02:09:11.320Z,102767.12
2019-02-26T02:11:40.740Z,102759.91
2019-02-26T02:14:10.344Z,102755.09
2019-02-26T02:16:38.510Z,102755.44
2019-02-26T02:19:05.980Z,102756.41
2019-02-26T02:21:35.515Z,102760.66
2019-02-26T02:24:02.155Z,102761.02
2019-02-26T02:26:29.910Z,102776.38
2019-02-26T02:28:57.128Z,102781.11
2019-02-26T02:31:26.778Z,102782.30
2019-02-26T02:33:54.112Z,102776.28
2019-02-26T02:36:23.672Z,102773.14
2019-02-26T02:38:55.959Z,102785.58
2019-02-26T02:41:22.919Z,102776.19
2019-02-26T02:43:50.498Z,102768.45
2019-02-26T02:46:17.629Z,102771.02
2019-02-26T02:48:44.301Z,102769.43
2019-02-26T02:51:13.776Z,102767.17
2019-02-26T02:53:40.542Z,102761.95
2019-02-26T02:56:09.861Z,102768.14
2019-02-26T02:58:38.617Z,102761.81
2019-02-26T03:01:05.770Z,102761.20
2019-02-26T03:03:33.605Z,102755.05
2019-02-26T03:06:04.351Z,102748.71
2019-02-26T03:08:29.787Z,102748.98
2019-02-26T03:10:57.025Z,102743.92
2019-02-26T03:13:45.646Z,102738.57
2019-02-26T03:16:13.437Z,102743.39
2019-02-26T03:18:42.131Z,102738.73
2019-02-26T03:21:09.623Z,102745.30
2019-02-26T03:23:38.009Z,102760.02
2019-02-26T03:26:05.236Z,102762.92
2019-02-26T03:28:34.798Z,102763.52
2019-02-26T03:31:00.717Z,102773.25
2019-02-26T03:33:28.216Z,102766.89
2019-02-26T03:35:55.129Z,102766.98
2019-02-26T03:38:23.400Z,102765.22
2019-02-26T03:40:51.918Z,102761.81
2019-02-26T03:43:20.154Z,102762.44
2019-02-26T03:45:48.220Z,102766.06
2019-02-26T03:48:19.262Z,102770.80
2019-02-26T03:50:45.422Z,102778.63
2019-02-26T03:53:12.757Z,102775.38
2019-02-26T03:55:42.020Z,102772.96
2019-02-26T03:58:08.802Z,102774.28
2019-02-26T04:00:53.462Z,102769.92
2019-02-26T04:03:20.777Z,102769.52
2019-02-26T04:05:47.445Z,102768.72
2019-02-26T04:08:16.657Z,102769.86
2019-02-26T04:10:47.219Z,102764.59
2019-02-26T04:13:12.270Z,102771.64
2019-02-26T04:15:40.674Z,102771.77
2019-02-26T04:18:07.439Z,102757.52
2019-02-26T04:20:35.474Z,102759.42
2019-02-26T04:23:03.233Z,102750.70
2019-02-26T04:25:36.435Z,102756.95
2019-02-26T04:29:03.820Z,102765.53
2019-02-26T04:32:09.141Z,102771.06
2019-02-26T04:35:02.991Z,102767.47
2019-02-26T04:38:18.255Z,102776.06
2019-02-26T04:41:20.928Z,102775.72
2019-02-26T04:44:34.225Z,102776.28
2019-02-26T04:47:06.371Z,102781.59
2019-02-26T04:49:36.061Z,102762.56
2019-02-26T04:52:04.994Z,102769.47
2019-02-26T04:54:56.646Z,102766.20
2019-02-26T04:57:25.699Z,102752.13
2019-02-26T04:59:55.663Z,102748.63
2019-02-26T05:02:24.115Z,102743.27
2019-02-26T05:04:50.892Z,102744.73
2019-02-26T05:07:19.416Z,102751.24
2019-02-26T05:09:47.519Z,102753.67
2019-02-26T05:12:15.445Z,102747.06
2019-02-26T05:14:43.345Z,102754.86
2019-02-26T05:17:10.576Z,102743.67
2019-02-26T05:20:07.186Z,102744.16
2019-02-26T05:22:35.022Z,102735.14
2019-02-26T05:25:04.737Z,102734.34
2019-02-26T05:27:32.303Z,102723.63
2019-02-26T05:29:58.974Z,102729.99
2019-02-26T05:32:27.728Z,102728.13
2019-02-26T05:34:55.018Z,102734.83
2019-02-26T05:37:21.690Z,102731.45
2019-02-26T05:39:49.054Z,102738.11
2019-02-26T05:42:17.493Z,102738.67
2019-02-26T05:44:44.969Z,102737.34
2019-02-26T05:47:13.236Z,102742.95
2019-02-26T05:49:43.294Z,102736.37
2019-02-26T05:52:24.095Z,102735.17
2019-02-26T05:54:59.194Z,102731.50
2019-02-26T05:57:32.347Z,102733.88
2019-02-26T05:59:55.145Z,102733.32
2019-02-26T06:02:24.430Z,102738.53
2019-02-26T06:04:51.227Z,102739.69
2019-02-26T06:07:21.715Z,102733.98
2019-02-26T06:09:48.390Z,102728.34
2019-02-26T06:12:16.037Z,102723.67
2019-02-26T06:14:44.033Z,102718.92
2019-02-26T06:17:13.191Z,102717.34
2019-02-26T06:19:47.558Z,102722.30
2019-02-26T06:22:18.217Z,102723.41
2019-02-26T06:24:44.435Z,102718.06
2019-02-26T06:27:15.388Z,102724.91
2019-02-26T06:29:40.449Z,102717.30
2019-02-26T06:32:10.110Z,102719.21
2019-02-26T06:34:39.761Z,102719.83
2019-02-26T06:37:18.104Z,102732.17
2019-02-26T06:39:45.387Z,102730.97
2019-02-26T06:42:14.426Z,102735.67
2019-02-26T06:44:43.762Z,102740.17
2019-02-26T06:47:12.610Z,102736.15
2019-02-26T06:49:40.936Z,102732.80
2019-02-26T06:52:08.378Z,102739.56
2019-02-26T06:54:37.005Z,102739.87
2019-02-26T06:57:03.706Z,102738.23
2019-02-26T06:59:34.231Z,102743.33
2019-02-26T07:02:00.830Z,102748.37
2019-02-26T07:04:36.390Z,102756.02
2019-02-26T07:07:04.412Z,102761.38
2019-02-26T07:09:34.513Z,102752.02
2019-02-26T07:12:01.603Z,102749.38
2019-02-26T07:14:30.254Z,102753.80
2019-02-26T07:16:59.188Z,102750.09
2019-02-26T07:19:28.261Z,102756.38
2019-02-26T07:22:02.114Z,102752.28
2019-02-26T07:24:29.075Z,102763.77
2019-02-26T07:26:56.993Z,102759.03
2019-02-26T07:29:24.025Z,102749.68
2019-02-26T07:31:51.871Z,102754.03
2019-02-26T07:34:20.527Z,102759.13
2019-02-26T07:36:50.712Z,102768.05
2019-02-26T07:39:25.568Z,102776.99
2019-02-26T07:41:54.252Z,102773.80
2019-02-26T07:44:21.713Z,102769.17
2019-02-26T07:46:50.561Z,102760.66
2019-02-26T07:49:19.835Z,102752.26
2019-02-26T07:51:46.701Z,102753.77
2019-02-26T07:54:14.524Z,102744.43
2019-02-26T07:56:41.527Z,102742.58
2019-02-26T07:59:09.960Z,102747.34
2019-02-26T08:01:39.900Z,102748.58
2019-02-26T08:04:10.683Z,102740.69
2019-02-26T08:06:38.479Z,102745.58
2019-02-26T08:09:09.142Z,102741.14
2019-02-26T08:11:36.804Z,102731.31
2019-02-26T08:14:06.253Z,102734.27
2019-02-26T08:16:35.007Z,102735.20
2019-02-26T08:19:02.384Z,102742.42
2019-02-26T08:21:30.947Z,102748.67
2019-02-26T08:24:10.614Z,102750.80
2019-02-26T08:26:40.378Z,102750.58
2019-02-26T08:29:09.709Z,102745.72
2019-02-26T08:31:36.721Z,102745.89
2019-02-26T08:34:23.861Z,102750.55
2019-02-26T08:36:50.618Z,102750.28
2019-02-26T08:39:17.861Z,102752.95
2019-02-26T08:42:05.164Z,102753.88
2019-02-26T08:44:32.327Z,102749.64
2019-02-26T08:46:59.001Z,102745.42
2019-02-26T08:49:27.074Z,102734.22
2019-02-26T08:51:54.151Z,102725.72
2019-02-26T08:54:24.286Z,102726.17
2019-02-26T08:56:51.624Z,102738.73
2019-02-26T08:59:20.222Z,102729.61
2019-02-26T09:01:47.378Z,102735.22
2019-02-26T09:04:14.562Z,102738.83
2019-02-26T09:06:42.938Z,102732.13
2019-02-26T09:09:11.850Z,102732.17
2019-02-26T09:11:42.841Z,102735.29
2019-02-26T09:14:11.520Z,102735.76
2019-02-26T09:16:47.683Z,102743.02
2019-02-26T09:19:14.851Z,102747.38
2019-02-26T09:21:45.253Z,102751.27
2019-02-26T09:24:11.390Z,102752.72
2019-02-26T09:26:39.170Z,102748.73
2019-02-26T09:29:06.689Z,102739.45
2019-02-26T09:31:34.846Z,102737.59
2019-02-26T09:34:01.783Z,102737.66
2019-02-26T09:39:27.023Z,102754.44
2019-02-26T09:41:56.990Z,102767.02
2019-02-26T09:44:26.169Z,102777.56
2019-02-26T09:46:55.357Z,102775.37
2019-02-26T09:49:24.616Z,102771.95
2019-02-26T09:51:54.485Z,102762.75
2019-02-26T09:54:22.641Z,102754.66
2019-02-26T09:56:50.032Z,102762.03
2019-02-26T09:59:18.100Z,102754.50
2019-02-26T10:01:45.447Z,102760.47
2019-02-26T10:04:12.123Z,102765.14
2019-02-26T10:06:40.647Z,102770.07
2019-02-26T10:09:11.294Z,102773.46
2019-02-26T10:11:39.395Z,102779.66
2019-02-26T10:14:08.321Z,102780.64
2019-02-26T10:16:36.153Z,102783.70
2019-02-26T10:19:04.099Z,102779.52
2019-02-26T10:21:33.071Z,102784.45
2019-02-26T10:24:02.026Z,102778.39
2019-02-26T10:26:30.879Z,102784.84
2019-02-26T10:29:04.317Z,102786.22
2019-02-26T10:31:28.591Z,102774.40
2019-02-26T10:33:55.733Z,102781.41
2019-02-26T10:36:23.049Z,102777.28
2019-02-26T10:38:52.634Z,102781.60
2019-02-26T10:41:21.130Z,102781.60
2019-02-26T10:43:48.875Z,102782.69
2019-02-26T10:46:16.255Z,102786.17
2019-02-26T10:48:45.653Z,102788.31
2019-02-26T10:51:12.734Z,102788.69
2019-02-26T10:53:39.946Z,102801.60
2019-02-26T10:56:07.642Z,102787.19
2019-02-26T10:58:36.088Z,102790.90
2019-02-26T11:01:05.118Z,102791.64
2019-02-26T11:03:37.962Z,102788.23
2019-02-26T11:06:04.612Z,102793.66
2019-02-26T11:08:32.798Z,102793.66
2019-02-26T11:11:00.622Z,102798.53
2019-02-26T11:13:27.804Z,102798.53
2019-02-26T11:15:57.345Z,102798.81
2019-02-26T11:18:24.740Z,102798.81
2019-02-26T11:20:55.301Z,102796.89
2019-02-26T11:23:30.516Z,102785.67
2019-02-26T11:25:49.561Z,102785.67
2019-02-26T11:28:17.050Z,102795.29
2019-02-26T11:30:44.316Z,102798.52
2019-02-26T11:33:13.692Z,102794.15
2019-02-26T11:35:43.894Z,102789.47
2019-02-26T11:38:12.340Z,102796.33
2019-02-26T11:40:39.926Z,102796.73
2019-02-26T11:43:11.517Z,102788.23
2019-02-26T11:45:37.086Z,102789.81
2019-02-26T11:48:08.129Z,102793.53
2019-02-26T11:50:33.902Z,102799.78
2019-02-26T11:53:01.642Z,102798.81
2019-02-26T11:55:31.853Z,102803.13
2019-02-26T11:57:57.817Z,102804.05
2019-02-26T12:00:59.985Z,102803.18
2019-02-26T12:03:30.162Z,102805.11
2019-02-26T12:05:58.439Z,102801.03
2019-02-26T12:08:25.927Z,102803.24
2019-02-26T12:10:57.679Z,102785.75
2019-02-26T12:13:24.979Z,102784.30
2019-02-26T12:15:52.197Z,102787.56
2019-02-26T12:18:19.999Z,102784.19
2019-02-26T12:20:48.792Z,102783.32
2019-02-26T12:23:19.004Z,102785.47
2019-02-26T12:25:47.202Z,102783.98
2019-02-26T12:28:15.739Z,102778.44
2019-02-26T12:30:44.773Z,102772.61
2019-02-26T12:33:14.319Z,102770.62
2019-02-26T12:35:43.499Z,102769.02
2019-02-26T12:38:18.029Z,102760.40
2019-02-26T12:40:41.146Z,102760.69
2019-02-26T12:43:11.672Z,102752.95
2019-02-26T12:45:40.531Z,102747.67
2019-02-26T12:48:10.129Z,102750.94
2019-02-26T12:50:40.121Z,102746.36
2019-02-26T12:53:11.546Z,102744.47
2019-02-26T12:55:38.221Z,102747.63
2019-02-26T12:58:04.400Z,102743.30
2019-02-26T13:00:31.621Z,102733.09
2019-02-26T13:02:59.351Z,102734.13
2019-02-26T13:05:26.399Z,102730.52
2019-02-26T13:07:54.258Z,102729.64
2019-02-26T13:10:21.054Z,102723.47
2019-02-26T13:12:52.843Z,102722.94
2019-02-26T13:15:19.384Z,102721.45
2019-02-26T13:17:48.914Z,102711.07
2019-02-26T13:20:17.638Z,102714.16
2019-02-26T13:22:45.915Z,102711.47
2019-02-26T13:25:15.560Z,102708.77
2019-02-26T13:27:43.659Z,102711.71
2019-02-26T13:30:15.470Z,102709.86
2019-02-26T13:32:55.115Z,102712.41
2019-02-26T13:35:11.829Z,102715.45
2019-02-26T13:37:41.933Z,102710.84
2019-02-26T13:40:11.768Z,102704.98
2019-02-26T13:42:39.324Z,102702.98
2019-02-26T13:45:08.302Z,102694.11
2019-02-26T13:47:35.655Z,102700.45
2019-02-26T13:50:03.180Z,102698.42
2019-02-26T13:52:30.563Z,102698.83
2019-02-26T13:54:57.635Z,102702.52
2019-02-26T13:57:24.646Z,102702.36
2019-02-26T13:59:52.537Z,102689.94
2019-02-26T14:02:19.885Z,102683.59
2019-02-26T14:04:47.366Z,102689.14
2019-02-26T14:07:14.577Z,102686.08
2019-02-26T14:09:42.514Z,102686.81
2019-02-26T14:12:09.551Z,102683.00
2019-02-26T14:14:36.802Z,102679.68
2019-02-26T14:17:04.056Z,102677.27
2019-02-26T14:19:31.084Z,102667.08
2019-02-26T14:21:58.008Z,102660.92
2019-02-26T14:24:24.717Z,102656.31
2019-02-26T14:26:52.621Z,102656.72
2019-02-26T14:29:19.838Z,102656.38
2019-02-26T14:31:47.227Z,102645.76
2019-02-26T14:34:14.624Z,102641.86
2019-02-26T14:36:42.159Z,102648.17
2019-02-26T14:39:10.098Z,102638.30
2019-02-26T14:41:37.895Z,102646.34
2019-02-26T14:44:05.649Z,102643.77
2019-02-26T14:46:33.118Z,102647.15
2019-02-26T14:49:00.888Z,102651.05
2019-02-26T14:51:27.674Z,102653.36
2019-02-26T14:53:54.582Z,102643.40
2019-02-26T14:56:22.328Z,102642.38
2019-02-26T14:58:49.237Z,102643.03
2019-02-26T15:01:16.737Z,102647.05
2019-02-26T15:03:43.970Z,102648.58
2019-02-26T15:06:11.625Z,102644.95
2019-02-26T15:08:41.290Z,102641.98
2019-02-26T15:11:08.378Z,102641.68
2019-02-26T15:13:35.748Z,102646.00
2019-02-26T15:16:03.406Z,102647.59
2019-02-26T15:18:31.487Z,102645.38
2019-02-26T15:20:58.162Z,102646.53
2019-02-26T15:23:25.329Z,102644.40
2019-02-26T15:25:53.963Z,102646.11
2019-02-26T15:28:20.997Z,102646.63
2019-02-26T15:30:47.839Z,102646.80
2019-02-26T15:33:14.654Z,102641.19
2019-02-26T15:35:41.570Z,102642.63
2019-02-26T15:38:08.571Z,102642.18
2019-02-26T15:40:36.129Z,102632.73
2019-02-26T15:43:03.392Z,102636.30
2019-02-26T15:45:31.053Z,102639.13
2019-02-26T15:47:58.303Z,102634.34
2019-02-26T15:50:25.038Z,102633.99
2019-02-26T15:52:53.000Z,102642.42
2019-02-26T15:55:21.594Z,102644.42
2019-02-26T15:57:49.853Z,102642.16
2019-02-26T16:00:18.330Z,102637.86
2019-02-26T16:02:46.689Z,102636.31
2019-02-26T16:05:14.056Z,102634.29
2019-02-26T16:07:41.094Z,102642.48
2019-02-26T16:10:08.669Z,102634.54
2019-02-26T16:12:35.653Z,102644.88
2019-02-26T16:15:07.950Z,102645.11
2019-02-26T16:17:33.739Z,102650.13
2019-02-26T16:20:00.684Z,102647.08
2019-02-26T16:22:28.432Z,102650.55
2019-02-26T16:24:55.798Z,102647.39
2019-02-26T16:27:22.491Z,102642.58
2019-02-26T16:29:51.222Z,102648.72
2019-02-26T16:32:18.411Z,102655.73
2019-02-26T16:34:45.805Z,102654.19
2019-02-26T16:37:12.850Z,102647.69
2019-02-26T16:39:40.433Z,102645.44
2019-02-26T16:42:11.434Z,102643.30
2019-02-26T16:44:37.447Z,102645.52
2019-02-26T16:47:05.348Z,102640.67
2019-02-26T16:49:33.215Z,102649.72
2019-02-26T16:52:00.992Z,102651.45
2019-02-26T16:54:28.429Z,102644.38
2019-02-26T16:56:55.486Z,102645.61
2019-02-26T16:59:22.769Z,102641.19
2019-02-26T17:01:49.569Z,102644.61
2019-02-26T17:04:16.819Z,102656.38
2019-02-26T17:06:44.485Z,102663.94
2019-02-26T17:09:11.185Z,102664.94
2019-02-26T17:11:37.966Z,102668.64
2019-02-26T17:14:05.218Z,102670.63
2019-02-26T17:16:32.061Z,102671.34
2019-02-26T17:19:00.647Z,102673.50
2019-02-26T17:21:30.621Z,102667.75
2019-02-26T17:23:57.614Z,102669.97
2019-02-26T17:26:24.662Z,102667.84
2019-02-26T17:28:51.797Z,102668.21
2019-02-26T17:31:18.492Z,102669.06
2019-02-26T17:33:46.720Z,102669.06
2019-02-26T17:36:14.027Z,102666.22
2019-02-26T17:38:41.422Z,102666.22
2019-02-26T17:41:09.905Z,102662.20
2019-02-26T17:43:36.782Z,102665.80
2019-02-26T17:46:03.566Z,102662.70
2019-02-26T17:48:31.776Z,102664.05
2019-02-26T17:51:00.253Z,102668.93
2019-02-26T17:53:27.920Z,102668.93
2019-02-26T17:55:55.379Z,102669.50
2019-02-26T17:58:22.292Z,102670.45
2019-02-26T18:00:54.597Z,102670.45
2019-02-26T18:03:21.709Z,102672.17
2019-02-26T18:05:51.523Z,102676.45
2019-02-26T18:08:19.077Z,102675.71
2019-02-26T18:10:47.810Z,102670.70
2019-02-26T18:13:14.617Z,102667.36
2019-02-26T18:15:41.656Z,102667.36
2019-02-26T18:18:08.853Z,102666.92
2019-02-26T18:20:35.630Z,102663.05
2019-02-26T18:23:02.909Z,102665.56
2019-02-26T18:25:29.609Z,102672.53
2019-02-26T18:27:59.638Z,102668.43
2019-02-26T18:30:26.919Z,102668.88
2019-02-26T18:32:56.423Z,102669.56
2019-02-26T18:35:23.960Z,102668.06
2019-02-26T18:37:51.792Z,102668.06
2019-02-26T18:40:19.421Z,102663.25
2019-02-26T18:42:46.978Z,102663.30
2019-02-26T18:45:16.694Z,102665.49
2019-02-26T18:47:45.120Z,102660.37
2019-02-26T18:50:13.582Z,102661.00
2019-02-26T18:52:42.058Z,102652.47
2019-02-26T18:55:12.650Z,102646.64
2019-02-26T18:57:43.351Z,102657.91
2019-02-26T19:00:10.938Z,102654.27
2019-02-26T19:02:42.157Z,102651.33
2019-02-26T19:05:10.286Z,102654.69
2019-02-26T19:07:38.162Z,102649.14
2019-02-26T19:10:07.751Z,102647.13
2019-02-26T19:12:35.498Z,102648.25
2019-02-26T19:15:03.126Z,102643.84
2019-02-26T19:17:30.769Z,102638.12
2019-02-26T19:19:57.477Z,102633.97
2019-02-26T19:22:26.642Z,102636.98
2019-02-26T19:24:53.915Z,102632.18
2019-02-26T19:27:21.585Z,102627.22
2019-02-26T19:29:49.743Z,102625.73
2019-02-26T19:32:16.864Z,102622.41
2019-02-26T19:34:44.655Z,102616.77
2019-02-26T19:37:12.216Z,102617.88
2019-02-26T19:39:39.050Z,102616.25
2019-02-26T19:42:05.989Z,102612.78
2019-02-26T19:44:35.928Z,102612.45
2019-02-26T19:47:03.663Z,102616.37
2019-02-26T19:49:30.594Z,102606.08
2019-02-26T19:51:57.703Z,102602.66
2019-02-26T19:54:24.938Z,102604.37
2019-02-26T19:56:52.186Z,102602.16
2019-02-26T19:59:21.086Z,102594.11
2019-02-26T20:01:48.177Z,102595.08
2019-02-26T20:04:15.105Z,102593.30
2019-02-26T20:06:42.139Z,102591.50
2019-02-26T20:09:08.920Z,102585.47
2019-02-26T20:11:36.218Z,102580.34
2019-02-26T20:14:04.919Z,102580.15
2019-02-26T20:16:33.012Z,102583.09
2019-02-26T20:19:00.058Z,102576.00
2019-02-26T20:21:26.877Z,102580.95
2019-02-26T20:23:54.513Z,102578.59
2019-02-26T20:26:21.673Z,102577.20
2019-02-26T20:28:48.763Z,102575.49
2019-02-26T20:31:16.122Z,102576.08
2019-02-26T20:33:43.768Z,102568.19
2019-02-26T20:36:10.651Z,102567.84
2019-02-26T20:38:38.237Z,102567.41
2019-02-26T20:41:05.096Z,102564.39
2019-02-26T20:43:31.939Z,102559.24
2019-02-26T20:45:59.156Z,102562.98
2019-02-26T20:48:27.370Z,102558.65
2019-02-26T20:50:56.652Z,102561.06
2019-02-26T20:53:23.997Z,102556.26
2019-02-26T20:55:52.716Z,102558.26
2019-02-26T20:58:20.494Z,102559.58
2019-02-26T21:00:48.266Z,102563.00
2019-02-26T21:03:15.098Z,102561.79
2019-02-26T21:05:44.738Z,102559.80
2019-02-26T21:08:10.926Z,102556.08
2019-02-26T21:10:38.123Z,102564.45
2019-02-26T21:13:05.389Z,102558.95
2019-02-26T21:15:32.493Z,102555.55
2019-02-26T21:17:59.876Z,102548.08
2019-02-26T21:20:27.991Z,102543.96
2019-02-26T21:22:56.767Z,102551.34
2019-02-26T21:25:23.820Z,102546.16
2019-02-26T21:27:51.275Z,102540.59
2019-02-26T21:30:18.191Z,102543.64
2019-02-26T21:32:46.272Z,102533.41
2019-02-26T21:35:13.287Z,102537.69
2019-02-26T21:37:40.627Z,102535.25
2019-02-26T21:40:08.017Z,102536.65
2019-02-26T21:42:35.697Z,102538.87
2019-02-26T21:45:03.136Z,102543.16
2019-02-26T21:47:30.606Z,102539.45
2019-02-26T21:49:57.482Z,102536.44
2019-02-26T21:52:24.781Z,102533.08
2019-02-26T21:54:52.034Z,102539.13
2019-02-26T21:57:21.791Z,102538.41
2019-02-26T21:59:50.146Z,102531.53
2019-02-26T22:02:18.811Z,102525.34
2019-02-26T22:04:46.265Z,102532.13
2019-02-26T22:07:14.159Z,102529.66
2019-02-26T22:09:41.163Z,102528.34
2019-02-26T22:12:08.981Z,102527.09
2019-02-26T22:14:36.875Z,102520.19
2019-02-26T22:17:05.067Z,102525.30
2019-02-26T22:19:32.310Z,102525.74
2019-02-26T22:21:59.465Z,102520.44
2019-02-26T22:24:26.719Z,102522.00
2019-02-26T22:26:59.461Z,102521.31
2019-02-26T22:29:23.888Z,102498.67
2019-02-26T22:31:50.571Z,102506.67
2019-02-26T22:34:19.068Z,102514.86
2019-02-26T22:36:46.698Z,102510.73
2019-02-26T22:39:15.399Z,102514.55
2019-02-26T22:41:43.149Z,102503.67
2019-02-26T22:44:10.614Z,102506.92
2019-02-26T22:46:37.844Z,102501.83
2019-02-26T22:49:05.195Z,102506.78
2019-02-26T22:51:32.446Z,102506.81
2019-02-26T22:53:59.370Z,102502.75
2019-02-26T22:56:26.036Z,102505.11
2019-02-26T22:58:54.242Z,102504.61
2019-02-26T23:01:30.798Z,102502.64
2019-02-26T23:03:58.789Z,102499.80
2019-02-26T23:06:25.663Z,102497.98
2019-02-26T23:08:53.471Z,102489.44
2019-02-26T23:11:20.831Z,102490.28
2019-02-26T23:13:48.573Z,102490.33
2019-02-26T23:16:18.482Z,102495.55
2019-02-26T23:18:45.263Z,102492.05
2019-02-26T23:21:15.500Z,102490.98
2019-02-26T23:23:42.650Z,102489.59
2019-02-26T23:26:09.879Z,102489.24
2019-02-26T23:28:37.600Z,102494.94
2019-02-26T23:31:05.963Z,102494.02
2019-02-26T23:33:33.902Z,102491.75
2019-02-26T23:36:01.898Z,102496.72
2019-02-26T23:38:28.810Z,102498.84
2019-02-26T23:40:58.185Z,102490.68
2019-02-26T23:43:24.831Z,102494.41
2019-02-26T23:45:56.825Z,102495.49
2019-02-26T23:48:21.745Z,102494.41
2019-02-26T23:50:49.026Z,102492.45
2019-02-26T23:53:15.739Z,102491.05
2019-02-26T23:55:46.300Z,102487.12
2019-02-26T23:58:12.338Z,102486.06
